createdAt,value
2023-05-17T00:02:03.379Z,14.88
2023-05-17T00:04:49.135Z,22.52
2023-05-17T00:07:34.997Z,21.77
2023-05-17T00:10:20.872Z,22.00
2023-05-17T00:13:06.851Z,18.10
2023-05-17T00:15:52.747Z,22.50
2023-05-17T00:18:40.345Z,20.02
2023-05-17T00:21:26.669Z,20.17
2023-05-17T00:24:12.780Z,19.48
2023-05-17T00:26:58.384Z,22.67
2023-05-17T00:29:44.346Z,21.45
2023-05-17T00:32:30.217Z,19.75
2023-05-17T00:35:17.667Z,20.92
2023-05-17T00:38:03.913Z,24.20
2023-05-17T00:40:50.364Z,21.73
2023-05-17T00:43:36.062Z,20.80
2023-05-17T00:46:21.711Z,27.02
2023-05-17T00:49:07.741Z,19.52
2023-05-17T00:51:55.819Z,19.35
2023-05-17T00:54:42.189Z,21.48
2023-05-17T00:57:29.260Z,19.90
2023-05-17T01:00:15.605Z,19.80
2023-05-17T01:03:01.507Z,17.48
2023-05-17T01:05:48.376Z,19.27
2023-05-17T01:08:35.522Z,18.58
2023-05-17T01:11:31.969Z,19.80
2023-05-17T01:14:27.236Z,17.52
2023-05-17T01:17:17.053Z,18.17
2023-05-17T01:20:10.985Z,18.02
2023-05-17T01:23:16.628Z,17.88
2023-05-17T01:26:10.903Z,17.95
2023-05-17T01:29:01.040Z,26.73
2023-05-17T01:31:48.290Z,22.63
2023-05-17T01:34:35.408Z,17.17
2023-05-17T01:37:21.880Z,23.83
2023-05-17T01:40:09.535Z,18.77
2023-05-17T01:43:03.236Z,30.83
2023-05-17T01:45:59.841Z,20.52
2023-05-17T01:48:52.757Z,22.80
2023-05-17T01:51:47.526Z,17.42
2023-05-17T01:54:39.294Z,21.00
2023-05-17T01:57:32.488Z,21.73
2023-05-17T02:00:19.336Z,20.83
2023-05-17T02:03:06.540Z,25.67
2023-05-17T02:05:52.141Z,20.88
2023-05-17T02:08:38.134Z,20.05
2023-05-17T02:11:23.792Z,18.67
2023-05-17T02:14:11.628Z,15.20
2023-05-17T02:16:57.357Z,22.10
2023-05-17T02:19:44.544Z,19.25
2023-05-17T02:22:30.311Z,19.40
2023-05-17T02:25:17.235Z,25.52
2023-05-17T02:28:02.886Z,17.63
2023-05-17T02:30:48.747Z,18.05
2023-05-17T02:33:34.525Z,15.55
2023-05-17T02:36:22.051Z,16.67
2023-05-17T02:39:07.816Z,16.08
2023-05-17T02:41:53.393Z,14.00
2023-05-17T02:44:39.158Z,21.58
2023-05-17T02:47:24.948Z,18.60
2023-05-17T02:50:10.945Z,12.63
2023-05-17T02:52:58.269Z,12.70
2023-05-17T02:55:44.063Z,15.20
2023-05-17T02:58:30.084Z,22.77
2023-05-17T03:01:16.048Z,21.33
2023-05-17T03:04:01.987Z,20.40
2023-05-17T03:06:48.032Z,29.67
2023-05-17T03:09:35.453Z,21.00
2023-05-17T03:12:21.038Z,15.77
2023-05-17T03:15:07.515Z,18.70
2023-05-17T03:17:53.557Z,24.05
2023-05-17T03:20:39.135Z,17.05
2023-05-17T03:23:25.937Z,21.50
2023-05-17T03:31:55.240Z,19.40
2023-05-17T03:34:41.324Z,22.38
2023-05-17T03:37:27.366Z,18.80
2023-05-17T03:40:13.081Z,17.95
2023-05-17T03:43:00.045Z,20.38
2023-05-17T03:45:47.524Z,25.73
2023-05-17T03:48:36.493Z,23.30
2023-05-17T03:51:23.628Z,20.15
2023-05-17T03:54:09.211Z,27.83
2023-05-17T03:56:55.822Z,14.75
2023-05-17T03:59:43.686Z,26.45
2023-05-17T04:02:29.351Z,20.63
2023-05-17T04:05:15.188Z,18.77
2023-05-17T04:08:05.343Z,18.65
2023-05-17T04:10:51.355Z,17.98
2023-05-17T04:13:39.980Z,20.98
2023-05-17T04:16:27.051Z,22.10
2023-05-17T04:19:14.686Z,16.83
2023-05-17T04:22:00.260Z,19.20
2023-05-17T04:24:46.864Z,20.65
2023-05-17T04:27:33.350Z,21.25
2023-05-17T04:30:21.409Z,21.23
2023-05-17T04:33:08.402Z,21.92
2023-05-17T04:35:55.162Z,18.92
2023-05-17T04:38:41.627Z,13.43
2023-05-17T04:41:31.331Z,13.23
2023-05-17T04:44:18.606Z,12.75
2023-05-17T04:47:04.919Z,15.60
2023-05-17T04:49:52.334Z,17.23
2023-05-17T04:52:38.715Z,14.20
2023-05-17T04:55:24.539Z,12.23
2023-05-17T04:58:10.802Z,14.32
2023-05-17T05:00:57.774Z,16.88
2023-05-17T05:03:43.955Z,9.00
2023-05-17T05:06:32.764Z,14.65
2023-05-17T05:09:18.990Z,11.95
2023-05-17T05:12:06.486Z,14.75
2023-05-17T05:14:53.179Z,10.07
2023-05-17T05:17:39.184Z,9.25
2023-05-17T05:20:27.691Z,16.27
2023-05-17T05:23:18.432Z,15.00
2023-05-17T05:28:51.961Z,13.02
2023-05-17T05:31:38.089Z,12.13
2023-05-17T05:34:27.411Z,12.82
2023-05-17T05:37:15.720Z,18.52
2023-05-17T05:40:04.212Z,8.68
2023-05-17T05:42:50.179Z,11.77
2023-05-17T05:45:36.303Z,7.72
2023-05-17T05:48:22.932Z,13.10
2023-05-17T05:51:08.917Z,12.32
2023-05-17T05:53:58.539Z,10.38
2023-05-17T05:56:46.445Z,9.68
2023-05-17T05:59:34.623Z,10.57
2023-05-17T06:02:21.334Z,11.35
2023-05-17T06:05:08.268Z,14.63
2023-05-17T06:07:54.194Z,13.65
2023-05-17T06:10:40.249Z,11.27
2023-05-17T06:13:27.385Z,13.10
2023-05-17T06:16:13.321Z,9.93
2023-05-17T06:18:59.532Z,11.75
2023-05-17T06:21:45.190Z,9.05
2023-05-17T06:24:30.947Z,11.80
2023-05-17T06:27:17.064Z,10.43
2023-05-17T06:30:07.334Z,10.32
2023-05-17T06:32:53.384Z,10.88
2023-05-17T06:35:54.801Z,11.25
2023-05-17T06:38:41.993Z,7.93
2023-05-17T06:41:27.695Z,7.65
2023-05-17T06:44:14.112Z,8.90
2023-05-17T06:47:01.382Z,19.75
2023-05-17T06:49:47.223Z,9.00
2023-05-17T06:52:33.049Z,6.93
2023-05-17T06:55:18.935Z,7.25
2023-05-17T06:58:04.808Z,7.90
2023-05-17T07:00:50.937Z,6.45
2023-05-17T07:03:38.015Z,6.22
2023-05-17T07:06:24.258Z,7.78
2023-05-17T07:09:10.216Z,7.95
2023-05-17T07:11:56.096Z,4.93
2023-05-17T07:14:42.127Z,4.82
2023-05-17T07:17:28.866Z,5.70
2023-05-17T07:20:16.656Z,5.95
2023-05-17T07:23:02.486Z,6.47
2023-05-17T07:25:48.978Z,9.65
2023-05-17T07:28:34.778Z,7.50
2023-05-17T07:31:20.408Z,6.10
2023-05-17T07:34:06.018Z,8.88
2023-05-17T07:36:53.448Z,8.88
2023-05-17T07:39:39.375Z,9.98
2023-05-17T07:42:25.515Z,8.48
2023-05-17T07:45:11.815Z,8.70
2023-05-17T07:47:57.674Z,7.15
2023-05-17T07:50:45.059Z,12.13
2023-05-17T07:53:32.390Z,9.88
2023-05-17T07:56:18.168Z,8.23
2023-05-17T07:59:03.706Z,6.47
2023-05-17T08:01:49.940Z,5.30
2023-05-17T08:04:36.126Z,7.03
2023-05-17T08:07:21.973Z,7.57
2023-05-17T08:10:10.658Z,9.57
2023-05-17T08:12:56.861Z,5.15
2023-05-17T08:15:43.006Z,5.53
2023-05-17T08:18:29.049Z,4.45
2023-05-17T08:21:14.995Z,6.25
2023-05-17T08:24:03.330Z,6.80
2023-05-17T08:26:51.127Z,5.00
2023-05-17T08:29:39.527Z,10.25
2023-05-17T08:32:26.177Z,6.82
2023-05-17T08:35:12.660Z,5.72
2023-05-17T08:37:58.629Z,8.98
2023-05-17T08:40:44.419Z,6.63
2023-05-17T08:43:32.366Z,11.30
2023-05-17T08:46:23.617Z,10.82
2023-05-17T08:49:12.991Z,5.13
2023-05-17T08:52:00.803Z,5.63
2023-05-17T08:54:47.268Z,7.15
2023-05-17T08:57:36.224Z,6.32
2023-05-17T09:00:25.095Z,5.55
2023-05-17T09:03:17.926Z,5.90
2023-05-17T09:06:04.838Z,7.28
2023-05-17T09:08:54.710Z,7.55
2023-05-17T09:11:40.997Z,8.75
2023-05-17T09:14:33.808Z,10.73
2023-05-17T09:17:22.102Z,7.00
2023-05-17T09:20:09.038Z,5.32
2023-05-17T09:22:55.729Z,6.32
2023-05-17T09:25:47.979Z,6.45
2023-05-17T09:28:39.063Z,7.57
2023-05-17T09:31:25.045Z,5.82
2023-05-17T09:34:15.117Z,3.58
2023-05-17T09:37:01.090Z,8.82
2023-05-17T09:39:48.277Z,3.95
2023-05-17T09:42:39.251Z,10.50
2023-05-17T09:45:25.533Z,6.65
2023-05-17T09:48:15.157Z,5.80
2023-05-17T09:51:02.570Z,9.98
2023-05-17T09:53:54.521Z,8.45
2023-05-17T09:56:41.018Z,11.32
2023-05-17T09:59:29.165Z,2.90
2023-05-17T10:02:22.157Z,9.40
2023-05-17T10:05:11.119Z,5.40
2023-05-17T10:07:58.742Z,3.75
2023-05-17T10:10:46.401Z,6.13
2023-05-17T10:13:35.087Z,4.88
2023-05-17T10:16:23.468Z,7.20
2023-05-17T10:19:11.539Z,8.93
2023-05-17T10:22:05.060Z,5.80
2023-05-17T10:25:07.905Z,5.47
2023-05-17T10:27:54.478Z,5.85
2023-05-17T10:30:41.514Z,4.32
2023-05-17T10:33:28.133Z,4.95
2023-05-17T10:36:17.365Z,4.95
2023-05-17T10:39:03.375Z,4.18
2023-05-17T10:41:55.762Z,9.00
2023-05-17T10:44:49.275Z,4.53
2023-05-17T10:47:35.690Z,5.25
2023-05-17T10:50:27.002Z,5.55
2023-05-17T10:53:13.003Z,4.97
2023-05-17T10:55:58.883Z,4.05
2023-05-17T10:58:46.177Z,8.35
2023-05-17T11:01:52.981Z,4.80
2023-05-17T11:04:40.164Z,4.18
2023-05-17T11:07:29.443Z,4.05
2023-05-17T11:10:17.062Z,5.35
2023-05-17T11:13:22.764Z,6.65
2023-05-17T11:16:09.759Z,4.50
2023-05-17T11:19:06.425Z,8.40
2023-05-17T11:21:52.412Z,4.38
2023-05-17T11:24:44.037Z,5.03
2023-05-17T11:27:37.432Z,5.38
2023-05-17T11:30:24.673Z,5.13
2023-05-17T11:33:24.873Z,5.95
2023-05-17T11:36:22.779Z,3.67
2023-05-17T11:39:12.831Z,7.40
2023-05-17T11:41:58.724Z,8.45
2023-05-17T11:44:44.747Z,5.40
2023-05-17T11:47:31.383Z,4.22
2023-05-17T11:50:18.966Z,5.90
2023-05-17T11:53:05.394Z,9.57
2023-05-17T11:55:52.705Z,4.57
2023-05-17T11:58:38.859Z,6.00
2023-05-17T12:01:24.526Z,5.95
2023-05-17T12:04:10.563Z,7.50
2023-05-17T12:06:58.377Z,7.68
2023-05-17T12:09:46.192Z,6.68
2023-05-17T12:12:32.501Z,4.53
2023-05-17T12:15:19.602Z,7.43
2023-05-17T12:18:05.756Z,9.88
2023-05-17T12:20:59.091Z,7.97
2023-05-17T12:23:51.067Z,8.20
2023-05-17T12:26:43.919Z,4.22
2023-05-17T12:29:30.440Z,6.88
2023-05-17T12:32:16.594Z,9.95
2023-05-17T12:35:02.726Z,7.75
2023-05-17T12:37:48.828Z,5.57
2023-05-17T12:40:35.952Z,4.97
2023-05-17T12:43:24.333Z,6.50
2023-05-17T12:46:12.883Z,6.80
2023-05-17T12:49:05.537Z,11.43
2023-05-17T12:51:51.645Z,7.47
2023-05-17T12:54:40.890Z,4.00
2023-05-17T12:57:29.835Z,7.10
2023-05-17T13:00:17.754Z,9.10
2023-05-17T13:03:09.890Z,7.30
2023-05-17T13:06:00.186Z,11.80
2023-05-17T13:08:58.820Z,8.80
2023-05-17T13:11:50.186Z,8.75
2023-05-17T13:14:45.301Z,7.93
2023-05-17T13:17:35.960Z,6.43
2023-05-17T13:20:22.244Z,7.05
2023-05-17T13:23:07.908Z,8.75
2023-05-17T13:25:54.114Z,5.07
2023-05-17T13:28:41.355Z,4.80
2023-05-17T13:31:28.467Z,12.48
2023-05-17T13:34:14.232Z,3.90
2023-05-17T13:36:59.954Z,9.82
2023-05-17T13:39:45.886Z,5.63
2023-05-17T13:42:32.101Z,5.80
2023-05-17T13:45:18.113Z,5.07
2023-05-17T13:48:05.905Z,5.88
2023-05-17T13:50:52.240Z,11.55
2023-05-17T13:53:38.810Z,7.32
2023-05-17T13:56:24.807Z,8.50
2023-05-17T13:59:10.652Z,8.15
2023-05-17T14:01:56.387Z,6.95
2023-05-17T14:04:43.611Z,6.07
2023-05-17T14:07:29.197Z,6.47
2023-05-17T14:10:15.319Z,7.55
2023-05-17T14:13:01.638Z,4.78
2023-05-17T14:15:47.710Z,6.57
2023-05-17T14:18:33.747Z,8.63
2023-05-17T14:21:21.120Z,5.50
2023-05-17T14:24:07.157Z,8.85
2023-05-17T14:26:53.156Z,8.73
2023-05-17T14:29:39.053Z,10.40
2023-05-17T14:32:25.063Z,9.38
2023-05-17T14:35:11.402Z,9.82
2023-05-17T14:37:58.611Z,12.77
2023-05-17T14:40:44.496Z,6.57
2023-05-17T14:43:30.611Z,6.82
2023-05-17T14:46:17.063Z,8.73
2023-05-17T14:49:02.811Z,7.50
2023-05-17T14:51:48.664Z,7.22
2023-05-17T14:54:36.025Z,15.45
2023-05-17T14:57:22.017Z,6.50
2023-05-17T15:00:10.522Z,8.00
2023-05-17T15:02:56.829Z,5.88
2023-05-17T15:05:42.760Z,9.80
2023-05-17T15:08:29.559Z,11.48
2023-05-17T15:11:16.588Z,7.85
2023-05-17T15:14:02.659Z,6.80
2023-05-17T15:16:48.928Z,10.10
2023-05-17T15:19:34.861Z,5.90
2023-05-17T15:22:23.877Z,6.50
2023-05-17T15:25:09.959Z,7.85
2023-05-17T15:27:57.447Z,9.88
2023-05-17T15:30:43.503Z,6.68
2023-05-17T15:33:30.808Z,9.55
2023-05-17T15:36:16.760Z,7.90
2023-05-17T15:39:02.933Z,5.40
2023-05-17T15:41:48.836Z,6.93
2023-05-17T15:44:36.255Z,9.50
2023-05-17T15:47:26.156Z,7.47
2023-05-17T15:50:17.656Z,7.63
2023-05-17T15:53:03.303Z,11.30
2023-05-17T15:55:51.998Z,6.78
2023-05-17T15:58:37.973Z,5.18
2023-05-17T16:01:24.937Z,4.72
2023-05-17T16:04:10.876Z,7.13
2023-05-17T16:06:57.097Z,7.60
2023-05-17T16:09:42.902Z,6.00
2023-05-17T16:12:28.739Z,6.65
2023-05-17T16:15:14.453Z,6.43
2023-05-17T16:18:01.813Z,6.32
2023-05-17T16:20:47.367Z,7.93
2023-05-17T16:23:33.450Z,7.85
2023-05-17T16:26:19.411Z,8.82
2023-05-17T16:29:05.664Z,7.13
2023-05-17T16:31:52.969Z,10.82
2023-05-17T16:34:40.067Z,5.22
2023-05-17T16:37:26.295Z,5.85
2023-05-17T16:40:12.545Z,11.07
2023-05-17T16:42:58.081Z,8.80
2023-05-17T16:45:44.770Z,7.65
2023-05-17T16:48:30.558Z,6.00
2023-05-17T16:51:17.894Z,9.27
2023-05-17T16:54:03.785Z,10.05
2023-05-17T16:56:49.673Z,7.78
2023-05-17T16:59:35.575Z,9.70
2023-05-17T17:02:21.773Z,6.88
2023-05-17T17:05:08.384Z,9.95
2023-05-17T17:07:55.497Z,9.05
2023-05-17T17:10:41.318Z,8.93
2023-05-17T17:13:27.297Z,7.68
2023-05-17T17:16:13.172Z,7.90
2023-05-17T17:18:59.386Z,11.18
2023-05-17T17:21:48.662Z,9.60
2023-05-17T17:24:35.992Z,8.00
2023-05-17T17:27:22.011Z,8.70
2023-05-17T17:30:08.664Z,8.25
2023-05-17T17:32:54.929Z,11.60
2023-05-17T17:35:41.073Z,8.18
2023-05-17T17:38:26.948Z,8.45
2023-05-17T17:41:14.287Z,14.15
2023-05-17T17:44:00.360Z,12.27
2023-05-17T17:46:46.168Z,14.07
2023-05-17T17:49:32.492Z,9.50
2023-05-17T17:52:18.358Z,8.70
2023-05-17T17:55:05.131Z,11.27
2023-05-17T17:57:52.591Z,7.80
2023-05-17T18:00:38.681Z,11.93
2023-05-17T18:03:24.571Z,11.45
2023-05-17T18:06:10.416Z,12.20
2023-05-17T18:08:57.757Z,11.32
2023-05-17T18:11:43.589Z,6.30
2023-05-17T18:14:30.843Z,10.02
2023-05-17T18:17:16.672Z,13.48
2023-05-17T18:20:02.526Z,8.77
2023-05-17T18:22:51.463Z,6.30
2023-05-17T18:25:37.370Z,10.45
2023-05-17T18:28:33.767Z,8.75
2023-05-17T18:31:28.260Z,7.55
2023-05-17T18:34:14.239Z,9.65
2023-05-17T18:37:00.544Z,11.50
2023-05-17T18:39:46.357Z,11.13
2023-05-17T18:42:32.248Z,11.10
2023-05-17T18:45:17.908Z,9.77
2023-05-17T18:48:05.396Z,8.20
2023-05-17T18:50:51.157Z,7.38
2023-05-17T18:53:37.164Z,11.02
2023-05-17T18:56:25.051Z,6.53
2023-05-17T18:59:11.014Z,9.88
2023-05-17T19:01:56.954Z,7.93
2023-05-17T19:04:44.096Z,8.05
2023-05-17T19:07:29.881Z,8.68
2023-05-17T19:10:15.891Z,13.98
2023-05-17T19:13:01.851Z,10.70
2023-05-17T19:15:48.485Z,8.57
2023-05-17T19:18:35.133Z,6.72
2023-05-17T19:21:22.699Z,9.35
2023-05-17T19:24:08.590Z,8.65
2023-05-17T19:26:54.587Z,13.02
2023-05-17T19:29:40.514Z,5.45
2023-05-17T19:32:26.946Z,9.98
2023-05-17T19:35:12.970Z,6.57
2023-05-17T19:38:00.315Z,8.00
2023-05-17T19:40:45.987Z,9.77
2023-05-17T19:43:34.394Z,5.65
2023-05-17T19:46:20.574Z,10.02
2023-05-17T19:49:06.717Z,6.28
2023-05-17T19:51:54.094Z,10.13
2023-05-17T19:54:41.375Z,7.25
2023-05-17T19:57:27.520Z,9.38
2023-05-17T20:00:14.060Z,12.73
2023-05-17T20:02:59.854Z,5.97
2023-05-17T20:05:45.883Z,7.57
2023-05-17T20:08:32.001Z,8.70
2023-05-17T20:11:19.254Z,6.40
2023-05-17T20:14:05.008Z,8.95
2023-05-17T20:16:51.286Z,9.10
2023-05-17T20:19:38.522Z,8.90
2023-05-17T20:22:24.479Z,11.93
2023-05-17T20:25:11.137Z,6.15
2023-05-17T20:27:58.314Z,11.02
2023-05-17T20:30:45.604Z,6.60
2023-05-17T20:33:31.692Z,9.77
2023-05-17T20:36:17.389Z,7.88
2023-05-17T20:39:03.478Z,8.15
2023-05-17T20:41:49.586Z,13.30
2023-05-17T20:44:36.703Z,8.65
2023-05-17T20:47:22.861Z,8.45
2023-05-17T20:50:12.225Z,6.78
2023-05-17T20:52:57.898Z,11.45
2023-05-17T20:55:44.487Z,12.32
2023-05-17T20:58:31.063Z,6.50
2023-05-17T21:01:18.749Z,14.05
2023-05-17T21:04:04.972Z,11.80
2023-05-17T21:06:50.695Z,3.88
2023-05-17T21:09:37.006Z,4.70
2023-05-17T21:12:23.954Z,13.48
2023-05-17T21:15:31.107Z,5.65
2023-05-17T21:18:17.927Z,5.78
2023-05-17T21:21:03.816Z,5.07
2023-05-17T21:23:49.601Z,4.78
2023-05-17T21:26:36.908Z,6.40
2023-05-17T21:29:24.932Z,8.52
2023-05-17T21:32:10.886Z,10.20
2023-05-17T21:34:59.589Z,8.43
2023-05-17T21:37:45.569Z,10.02
2023-05-17T21:40:31.962Z,3.83
2023-05-17T21:43:18.079Z,11.18
2023-05-17T21:46:03.758Z,9.95
2023-05-17T21:48:49.402Z,13.40
2023-05-17T21:51:36.561Z,6.93
2023-05-17T21:54:24.637Z,11.35
2023-05-17T21:57:10.508Z,11.18
2023-05-17T21:59:56.138Z,15.35
2023-05-17T22:02:43.153Z,13.82
2023-05-17T22:05:28.855Z,10.80
2023-05-17T22:08:17.723Z,6.95
2023-05-17T22:11:03.983Z,9.93
2023-05-17T22:13:50.511Z,8.93
2023-05-17T22:16:36.552Z,6.18
2023-05-17T22:19:23.382Z,4.80
2023-05-17T22:22:09.354Z,4.68
2023-05-17T22:24:56.511Z,8.07
2023-05-17T22:27:42.076Z,9.90
2023-05-17T22:30:28.019Z,10.55
2023-05-17T22:33:13.829Z,6.53
2023-05-17T22:36:02.435Z,7.07
2023-05-17T22:38:48.506Z,6.07
2023-05-17T22:41:36.287Z,8.23
2023-05-17T22:44:22.269Z,6.32
2023-05-17T22:47:09.221Z,8.82
2023-05-17T22:49:54.976Z,8.32
2023-05-17T22:52:42.630Z,11.82
2023-05-17T22:55:28.882Z,9.93
2023-05-17T22:58:16.410Z,7.70
2023-05-17T23:01:02.110Z,7.90
2023-05-17T23:03:47.879Z,6.95
2023-05-17T23:06:34.316Z,8.30
2023-05-17T23:09:21.254Z,10.85
2023-05-17T23:12:07.754Z,9.10
2023-05-17T23:14:57.866Z,6.28
2023-05-17T23:17:44.025Z,8.77
2023-05-17T23:20:29.746Z,10.55
2023-05-17T23:23:15.818Z,7.60
2023-05-17T23:26:01.872Z,10.82
2023-05-17T23:28:50.252Z,11.25
2023-05-17T23:31:37.831Z,9.07
2023-05-17T23:34:23.788Z,7.82
2023-05-17T23:37:09.738Z,6.70
2023-05-17T23:39:55.569Z,6.18
2023-05-17T23:42:41.787Z,9.63
2023-05-17T23:45:27.859Z,6.97
2023-05-17T23:48:16.048Z,8.23
2023-05-17T23:51:02.007Z,6.25
2023-05-17T23:53:48.984Z,7.53
2023-05-17T23:56:34.739Z,8.00
2023-05-17T23:59:22.781Z,6.00
